sensor_id;sensor_type;location;lat;lon;timestamp;pressure;altitude;pressure_sealevel;temperature
77355;BMP280;66422;51.202;19.936;2023-08-24T00:08:28;99660.35;;;16.26
77355;BMP280;66422;51.202;19.936;2023-08-24T00:23:48;99654.39;;;16.21
77355;BMP280;66422;51.202;19.936;2023-08-24T00:39:08;99659.50;;;16.09
77355;BMP280;66422;51.202;19.936;2023-08-24T00:54:30;99655.21;;;16.02
77355;BMP280;66422;51.202;19.936;2023-08-24T01:09:50;99655.13;;;16.04
77355;BMP280;66422;51.202;19.936;2023-08-24T01:40:39;99650.50;;;15.88
77355;BMP280;66422;51.202;19.936;2023-08-24T01:56:14;99644.98;;;15.73
77355;BMP280;66422;51.202;19.936;2023-08-24T02:11:35;99641.63;;;15.56
77355;BMP280;66422;51.202;19.936;2023-08-24T02:26:55;99644.42;;;15.50
77355;BMP280;66422;51.202;19.936;2023-08-24T02:42:14;99640.76;;;15.26
77355;BMP280;66422;51.202;19.936;2023-08-24T02:57:34;99625.94;;;15.23
77355;BMP280;66422;51.202;19.936;2023-08-24T03:12:56;99627.17;;;15.13
77355;BMP280;66422;51.202;19.936;2023-08-24T03:28:16;99628.36;;;15.06
77355;BMP280;66422;51.202;19.936;2023-08-24T03:43:36;99634.03;;;15.15
77355;BMP280;66422;51.202;19.936;2023-08-24T03:58:56;99634.13;;;15.13
77355;BMP280;66422;51.202;19.936;2023-08-24T04:14:16;99639.11;;;14.80
77355;BMP280;66422;51.202;19.936;2023-08-24T04:29:35;99644.16;;;15.22
77355;BMP280;66422;51.202;19.936;2023-08-24T04:44:55;99652.77;;;15.54
77355;BMP280;66422;51.202;19.936;2023-08-24T05:00:15;99644.96;;;15.81
77355;BMP280;66422;51.202;19.936;2023-08-24T05:15:35;99644.97;;;16.22
77355;BMP280;66422;51.202;19.936;2023-08-24T05:30:55;99639.11;;;16.78
77355;BMP280;66422;51.202;19.936;2023-08-24T05:46:15;99644.52;;;18.47
77355;BMP280;66422;51.202;19.936;2023-08-24T06:01:35;99650.97;;;19.13
77355;BMP280;66422;51.202;19.936;2023-08-24T06:16:57;99645.28;;;20.24
77355;BMP280;66422;51.202;19.936;2023-08-24T06:32:17;99647.09;;;21.50
77355;BMP280;66422;51.202;19.936;2023-08-24T06:47:37;99635.23;;;22.78
77355;BMP280;66422;51.202;19.936;2023-08-24T07:02:56;99643.98;;;23.26
77355;BMP280;66422;51.202;19.936;2023-08-24T07:18:17;99650.68;;;23.82
77355;BMP280;66422;51.202;19.936;2023-08-24T07:33:37;99656.75;;;24.88
77355;BMP280;66422;51.202;19.936;2023-08-24T07:49:00;99650.19;;;25.62
77355;BMP280;66422;51.202;19.936;2023-08-24T08:04:20;99637.73;;;26.66
77355;BMP280;66422;51.202;19.936;2023-08-24T08:19:39;99639.38;;;26.65
77355;BMP280;66422;51.202;19.936;2023-08-24T08:34:59;99639.67;;;26.99
77355;BMP280;66422;51.202;19.936;2023-08-24T08:50:20;99629.27;;;27.35
77355;BMP280;66422;51.202;19.936;2023-08-24T09:05:40;99618.23;;;27.70
77355;BMP280;66422;51.202;19.936;2023-08-24T09:21:00;99618.27;;;27.83
77355;BMP280;66422;51.202;19.936;2023-08-24T09:36:21;99626.21;;;28.00
77355;BMP280;66422;51.202;19.936;2023-08-24T09:51:41;99609.05;;;28.36
77355;BMP280;66422;51.202;19.936;2023-08-24T10:07:11;99598.20;;;28.63
77355;BMP280;66422;51.202;19.936;2023-08-24T10:22:36;99598.94;;;28.91
77355;BMP280;66422;51.202;19.936;2023-08-24T10:37:58;99603.36;;;29.34
77355;BMP280;66422;51.202;19.936;2023-08-24T10:53:37;99577.95;;;29.74
77355;BMP280;66422;51.202;19.936;2023-08-24T11:09:08;99582.59;;;30.32
77355;BMP280;66422;51.202;19.936;2023-08-24T11:24:33;99569.79;;;30.08
77355;BMP280;66422;51.202;19.936;2023-08-24T11:39:55;99539.30;;;29.00
77355;BMP280;66422;51.202;19.936;2023-08-24T11:55:15;99526.58;;;29.96
77355;BMP280;66422;51.202;19.936;2023-08-24T12:10:35;99512.55;;;30.25
77355;BMP280;66422;51.202;19.936;2023-08-24T12:25:54;99504.02;;;29.45
77355;BMP280;66422;51.202;19.936;2023-08-24T12:41:15;99506.59;;;30.03
77355;BMP280;66422;51.202;19.936;2023-08-24T12:56:34;99486.08;;;29.93
77355;BMP280;66422;51.202;19.936;2023-08-24T13:11:55;99480.07;;;28.95
77355;BMP280;66422;51.202;19.936;2023-08-24T13:27:15;99475.81;;;29.59
77355;BMP280;66422;51.202;19.936;2023-08-24T13:42:34;99445.98;;;29.29
77355;BMP280;66422;51.202;19.936;2023-08-24T13:57:54;99446.20;;;29.62
77355;BMP280;66422;51.202;19.936;2023-08-24T14:13:15;99433.36;;;29.75
77355;BMP280;66422;51.202;19.936;2023-08-24T14:28:48;99424.68;;;29.93
77355;BMP280;66422;51.202;19.936;2023-08-24T14:44:13;99442.52;;;30.41
77355;BMP280;66422;51.202;19.936;2023-08-24T14:59:33;99430.92;;;30.43
77355;BMP280;66422;51.202;19.936;2023-08-24T15:15:00;99424.34;;;30.11
77355;BMP280;66422;51.202;19.936;2023-08-24T15:30:20;99406.56;;;29.70
77355;BMP280;66422;51.202;19.936;2023-08-24T15:45:40;99388.02;;;29.14
77355;BMP280;66422;51.202;19.936;2023-08-24T16:00:59;99375.82;;;29.18
77355;BMP280;66422;51.202;19.936;2023-08-24T16:16:20;99353.77;;;28.80
77355;BMP280;66422;51.202;19.936;2023-08-24T16:31:39;99351.95;;;28.48
77355;BMP280;66422;51.202;19.936;2023-08-24T16:46:59;99351.39;;;28.23
77355;BMP280;66422;51.202;19.936;2023-08-24T17:02:19;99342.02;;;27.78
77355;BMP280;66422;51.202;19.936;2023-08-24T17:17:39;99344.36;;;26.79
77355;BMP280;66422;51.202;19.936;2023-08-24T17:33:00;99343.68;;;25.65
77355;BMP280;66422;51.202;19.936;2023-08-24T17:48:20;99342.52;;;24.50
77355;BMP280;66422;51.202;19.936;2023-08-24T18:03:39;99358.58;;;23.71
77355;BMP280;66422;51.202;19.936;2023-08-24T18:18:59;99391.64;;;22.92
77355;BMP280;66422;51.202;19.936;2023-08-24T18:34:19;99418.64;;;22.05
77355;BMP280;66422;51.202;19.936;2023-08-24T18:49:38;99408.84;;;21.50
77355;BMP280;66422;51.202;19.936;2023-08-24T19:04:58;99417.00;;;20.80
77355;BMP280;66422;51.202;19.936;2023-08-24T19:20:18;99408.73;;;20.52
77355;BMP280;66422;51.202;19.936;2023-08-24T19:35:37;99396.77;;;20.39
77355;BMP280;66422;51.202;19.936;2023-08-24T19:50:58;99388.05;;;20.18
77355;BMP280;66422;51.202;19.936;2023-08-24T20:06:22;99382.58;;;20.10
77355;BMP280;66422;51.202;19.936;2023-08-24T20:21:42;99371.17;;;19.82
77355;BMP280;66422;51.202;19.936;2023-08-24T20:37:03;99362.80;;;19.53
77355;BMP280;66422;51.202;19.936;2023-08-24T20:52:22;99370.36;;;19.14
77355;BMP280;66422;51.202;19.936;2023-08-24T21:07:42;99364.83;;;18.66
77355;BMP280;66422;51.202;19.936;2023-08-24T21:23:02;99367.17;;;18.49
77355;BMP280;66422;51.202;19.936;2023-08-24T21:38:22;99368.28;;;18.19
77355;BMP280;66422;51.202;19.936;2023-08-24T21:53:42;99361.23;;;18.07
77355;BMP280;66422;51.202;19.936;2023-08-24T22:09:01;99328.19;;;17.95
77355;BMP280;66422;51.202;19.936;2023-08-24T22:24:21;99312.66;;;17.75
77355;BMP280;66422;51.202;19.936;2023-08-24T22:39:40;99300.77;;;17.42
77355;BMP280;66422;51.202;19.936;2023-08-24T22:55:01;99283.63;;;17.33
77355;BMP280;66422;51.202;19.936;2023-08-24T23:10:23;99256.20;;;17.19
77355;BMP280;66422;51.202;19.936;2023-08-24T23:25:43;99250.14;;;16.86
77355;BMP280;66422;51.202;19.936;2023-08-24T23:41:03;99232.67;;;16.85
77355;BMP280;66422;51.202;19.936;2023-08-24T23:56:22;99246.93;;;16.57
